Time;durP1;ratioP1;P1;durP2;ratioP2;P2;SDS_P1;SDS_P2;PMS_P1;PMS_P2;Temp;Humidity;BMP_temperature;BMP_pressure;BME280_temperature;BME280_humidity;BME280_pressure;Samples;Min_cycle;Max_cycle;Signal;HPM_P1;HPM_P2
2020/12/19 00:00:07;;;;;;;60.85;24.33;;;10.20;79.10;;;;;;5004647;28;84214;-67
2020/12/19 00:02:33;;;;;;;54.53;24.45;;;10.30;79.10;;;;;;4986490;28;83473;-66
2020/12/19 00:04:59;;;;;;;52.90;22.27;;;10.30;79.10;;;;;;5004672;28;83334;-66
2020/12/19 00:07:24;;;;;;;42.80;19.63;;;10.40;79.00;;;;;;5004467;28;83808;-66
2020/12/19 00:09:50;;;;;;;54.78;23.25;;;10.30;78.90;;;;;;4986405;28;84235;-66
2020/12/19 00:12:20;;;;;;;39.30;18.38;;;10.30;78.90;;;;;;5004936;28;82709;-65
2020/12/19 00:14:47;;;;;;;39.35;16.85;;;10.30;78.90;;;;;;4986499;28;86604;-66
2020/12/19 00:17:14;;;;;;;38.65;18.27;;;10.30;78.90;;;;;;5004345;28;83052;-67
2020/12/19 00:19:39;;;;;;;30.13;14.85;;;10.40;78.80;;;;;;4986380;28;82411;-66
2020/12/19 00:22:08;;;;;;;33.13;15.07;;;10.40;78.70;;;;;;5004356;28;82759;-66
2020/12/19 00:24:34;;;;;;;25.33;12.38;;;10.40;78.50;;;;;;4986396;28;85175;-66
2020/12/19 00:27:00;;;;;;;26.83;13.70;;;10.40;78.50;;;;;;5004336;28;82962;-66
2020/12/19 00:29:26;;;;;;;22.10;11.18;;;10.40;78.30;;;;;;5004217;28;83378;-66
2020/12/19 00:31:51;;;;;;;20.75;9.80;;;10.40;78.00;;;;;;5004280;28;82808;-65
2020/12/19 00:34:18;;;;;;;22.25;11.13;;;10.40;77.70;;;;;;5005935;28;80974;-66
2020/12/19 00:36:44;;;;;;;19.48;9.98;;;10.40;77.30;;;;;;5004278;28;82428;-65
2020/12/19 00:39:10;;;;;;;19.80;9.95;;;10.40;77.20;;;;;;5003010;28;83737;-65
2020/12/19 00:41:36;;;;;;;21.33;10.73;;;10.30;77.30;;;;;;5006973;28;83763;-66
2020/12/19 00:44:02;;;;;;;22.17;11.23;;;10.30;77.40;;;;;;5002301;28;83268;-67
2020/12/19 00:46:27;;;;;;;21.25;10.30;;;10.20;77.50;;;;;;5003697;28;82772;-66
2020/12/19 00:48:53;;;;;;;20.05;10.43;;;10.20;77.60;;;;;;4985626;28;86340;-67
2020/12/19 00:51:21;;;;;;;21.05;11.48;;;10.10;77.80;;;;;;5003540;28;84049;-66
2020/12/19 00:53:51;;;;;;;20.98;10.90;;;10.00;78.00;;;;;;5003880;28;83147;-66
2020/12/19 00:56:23;;;;;;;26.65;11.85;;;10.00;78.10;;;;;;5003512;28;82843;-65
2020/12/19 00:58:53;;;;;;;23.73;11.73;;;10.00;78.30;;;;;;5002815;28;83300;-66
2020/12/19 01:01:22;;;;;;;24.05;11.82;;;10.00;78.50;;;;;;4985698;28;82743;-67
2020/12/19 01:03:48;;;;;;;22.55;11.13;;;10.00;78.60;;;;;;5003680;28;83388;-65
2020/12/19 01:06:18;;;;;;;29.10;13.45;;;10.00;78.60;;;;;;5003822;28;83185;-65
2020/12/19 01:08:50;;;;;;;26.73;12.73;;;10.00;78.50;;;;;;4985371;28;84498;-68
2020/12/19 01:11:18;;;;;;;21.20;10.82;;;10.00;78.60;;;;;;5003717;28;82516;-67
2020/12/19 01:13:44;;;;;;;28.40;13.77;;;10.10;78.70;;;;;;5003174;28;84601;-68
2020/12/19 01:16:17;;;;;;;25.33;12.82;;;10.00;78.80;;;;;;4985270;28;85011;-66
2020/12/19 01:18:47;;;;;;;27.55;11.80;;;10.10;78.80;;;;;;4985433;28;82592;-66
2020/12/19 01:21:26;;;;;;;25.05;12.70;;;10.10;78.70;;;;;;4985355;28;83245;-66
2020/12/19 01:23:52;;;;;;;27.67;12.05;;;10.20;78.70;;;;;;5003909;28;83801;-66
2020/12/19 01:26:18;;;;;;;24.20;11.90;;;10.20;78.60;;;;;;5003637;28;82875;-66
2020/12/19 01:28:45;;;;;;;24.98;12.38;;;10.30;78.50;;;;;;5003565;28;84950;-67
2020/12/19 01:31:13;;;;;;;23.58;10.88;;;10.20;78.40;;;;;;5003208;28;84123;-65
2020/12/19 01:33:39;;;;;;;26.10;12.70;;;10.30;78.40;;;;;;5003874;28;82420;-66
2020/12/19 01:36:10;;;;;;;23.40;11.65;;;10.30;78.40;;;;;;5002909;28;83390;-66
2020/12/19 01:38:36;;;;;;;24.65;12.45;;;10.30;78.40;;;;;;5003453;28;83236;-65
2020/12/19 01:41:02;;;;;;;26.88;12.55;;;10.30;78.30;;;;;;5003662;28;82968;-66
2020/12/19 01:43:51;;;;;;;26.60;13.98;;;10.30;78.30;;;;;;4984858;28;82939;-66
2020/12/19 01:46:23;;;;;;;27.83;12.70;;;10.30;78.20;;;;;;5003292;28;82795;-69
2020/12/19 01:48:49;;;;;;;26.83;13.20;;;10.20;78.30;;;;;;5003264;28;83779;-66
2020/12/19 01:51:15;;;;;;;28.02;13.38;;;10.20;78.30;;;;;;5006343;28;82847;-65
2020/12/19 01:53:41;;;;;;;28.50;12.30;;;10.20;78.40;;;;;;5006288;28;83920;-65
2020/12/19 01:56:10;;;;;;;27.73;14.05;;;10.20;78.60;;;;;;5006612;28;82536;-65
2020/12/19 01:58:36;;;;;;;27.88;13.23;;;10.20;78.70;;;;;;5006628;28;83612;-66
2020/12/19 02:01:02;;;;;;;29.10;13.73;;;10.20;78.70;;;;;;4988545;28;86358;-67
2020/12/19 02:03:28;;;;;;;26.65;13.93;;;10.20;78.70;;;;;;5006764;28;83528;-65
2020/12/19 02:05:55;;;;;;;30.42;14.45;;;10.20;78.80;;;;;;4988953;28;85533;-67
2020/12/19 02:08:21;;;;;;;29.80;14.20;;;10.20;78.80;;;;;;4988718;28;85983;-66
2020/12/19 02:10:47;;;;;;;29.10;14.30;;;10.20;78.80;;;;;;5006531;28;83108;-66
2020/12/19 02:13:12;;;;;;;34.35;14.85;;;10.20;78.80;;;;;;5006599;28;83148;-66
2020/12/19 02:15:43;;;;;;;32.38;14.57;;;10.20;78.80;;;;;;5006519;28;82487;-66
2020/12/19 02:18:09;;;;;;;33.63;13.88;;;10.30;78.70;;;;;;5005959;28;83240;-66
2020/12/19 02:20:36;;;;;;;29.50;14.73;;;10.30;78.60;;;;;;5006752;28;83013;-66
2020/12/19 02:23:04;;;;;;;29.98;14.55;;;10.30;78.50;;;;;;5006578;28;83279;-66
2020/12/19 02:25:35;;;;;;;35.90;14.98;;;10.30;78.60;;;;;;5006493;28;83327;-67
2020/12/19 02:28:02;;;;;;;30.25;14.63;;;10.30;78.80;;;;;;4987753;28;86198;-66
2020/12/19 02:30:29;;;;;;;31.60;15.48;;;10.30;78.90;;;;;;5006170;28;82858;-67
2020/12/19 02:32:55;;;;;;;28.67;15.07;;;10.20;79.00;;;;;;5006225;28;83212;-66
2020/12/19 02:35:20;;;;;;;29.20;14.50;;;10.20;79.20;;;;;;5006625;28;83335;-65
2020/12/19 02:37:46;;;;;;;35.55;15.05;;;10.20;79.20;;;;;;4987758;28;86008;-66
2020/12/19 02:40:12;;;;;;;27.80;13.95;;;10.20;79.20;;;;;;5006142;28;83300;-66
2020/12/19 02:42:38;;;;;;;26.85;13.55;;;10.20;79.10;;;;;;5005606;28;84562;-66
2020/12/19 02:45:03;;;;;;;21.13;11.30;;;10.20;79.00;;;;;;5005638;28;82800;-66
2020/12/19 02:47:29;;;;;;;23.73;11.20;;;10.20;78.90;;;;;;5005561;28;83749;-66
2020/12/19 02:49:55;;;;;;;21.58;10.57;;;10.20;78.90;;;;;;4987936;28;84780;-65
2020/12/19 02:52:21;;;;;;;22.25;10.65;;;10.20;79.10;;;;;;5005207;28;84450;-65
2020/12/19 02:54:46;;;;;;;20.98;10.00;;;10.10;79.30;;;;;;5005900;28;82609;-65
2020/12/19 02:57:12;;;;;;;20.92;10.00;;;10.20;79.40;;;;;;5005000;28;83311;-65
2020/12/19 02:59:38;;;;;;;19.58;9.88;;;10.20;79.30;;;;;;5005122;28;82817;-66
2020/12/19 03:02:03;;;;;;;20.75;9.73;;;10.10;79.50;;;;;;5007731;28;82150;-67
2020/12/19 03:04:29;;;;;;;17.80;9.30;;;10.10;79.60;;;;;;4989719;28;81562;-65
2020/12/19 03:06:55;;;;;;;19.67;10.65;;;10.00;79.80;;;;;;5008402;28;80707;-65
2020/12/19 03:09:20;;;;;;;19.25;9.75;;;10.10;79.90;;;;;;5005739;28;82399;-65
2020/12/19 03:11:46;;;;;;;20.58;10.93;;;10.10;79.90;;;;;;5007880;28;81818;-65
2020/12/19 03:14:12;;;;;;;19.00;9.60;;;10.10;79.90;;;;;;5005405;28;82531;-65
2020/12/19 03:16:38;;;;;;;18.98;9.68;;;10.20;79.80;;;;;;5008279;28;81320;-65
2020/12/19 03:19:03;;;;;;;21.75;9.50;;;10.20;79.80;;;;;;5007893;28;80374;-65
2020/12/19 03:21:29;;;;;;;22.38;10.98;;;10.20;79.90;;;;;;5007854;28;81262;-66
2020/12/19 03:23:55;;;;;;;21.65;10.57;;;10.10;79.90;;;;;;5005326;28;82382;-66
2020/12/19 03:26:21;;;;;;;20.30;10.35;;;10.10;80.00;;;;;;5005145;28;84863;-65
2020/12/19 03:28:46;;;;;;;21.02;10.88;;;10.10;80.10;;;;;;4987319;28;85653;-66
2020/12/19 03:31:12;;;;;;;21.05;10.45;;;10.10;80.10;;;;;;4986987;28;85817;-65
2020/12/19 03:33:38;;;;;;;21.05;11.90;;;10.10;80.10;;;;;;5005190;28;82780;-67
2020/12/19 03:36:04;;;;;;;19.20;10.30;;;10.00;80.20;;;;;;5005583;28;83283;-66
2020/12/19 03:38:30;;;;;;;22.38;9.80;;;10.00;80.30;;;;;;5005290;28;82698;-66
2020/12/19 03:40:56;;;;;;;23.63;10.95;;;10.10;80.30;;;;;;5008342;28;80635;-67
2020/12/19 03:43:21;;;;;;;19.95;10.13;;;10.00;80.40;;;;;;5005148;28;82499;-66
2020/12/19 03:45:47;;;;;;;18.13;10.10;;;10.00;80.40;;;;;;5005751;28;82319;-66
2020/12/19 03:48:13;;;;;;;18.38;10.57;;;10.10;80.40;;;;;;5004708;28;82690;-67
2020/12/19 03:50:38;;;;;;;24.95;11.50;;;10.10;80.30;;;;;;5004752;28;84834;-66
2020/12/19 03:53:04;;;;;;;21.30;10.50;;;10.10;80.30;;;;;;5004886;28;82798;-67
2020/12/19 03:55:30;;;;;;;25.48;11.10;;;10.10;80.20;;;;;;5004836;28;83156;-65
2020/12/19 03:57:56;;;;;;;22.77;11.63;;;10.20;80.10;;;;;;5004324;28;84124;-66
2020/12/19 04:00:22;;;;;;;24.17;12.13;;;10.20;80.10;;;;;;5004701;28;84557;-65
2020/12/19 04:02:48;;;;;;;28.05;12.48;;;10.30;80.00;;;;;;5004628;28;82817;-65
2020/12/19 04:05:14;;;;;;;25.67;12.07;;;10.30;80.00;;;;;;5004794;28;83258;-66
2020/12/19 04:07:40;;;;;;;24.40;12.75;;;10.30;79.90;;;;;;5004600;28;82836;-67
2020/12/19 04:10:07;;;;;;;29.63;12.95;;;10.40;79.90;;;;;;5004822;28;83324;-66
2020/12/19 04:12:34;;;;;;;29.67;13.38;;;10.40;79.90;;;;;;5003781;28;82826;-65
2020/12/19 04:15:00;;;;;;;29.55;13.93;;;10.40;79.80;;;;;;5004743;28;83537;-66
2020/12/19 04:17:26;;;;;;;25.17;12.50;;;10.40;79.70;;;;;;5004392;28;82881;-66
2020/12/19 04:19:51;;;;;;;27.88;13.55;;;10.40;79.70;;;;;;5004726;28;83164;-66
2020/12/19 04:22:17;;;;;;;30.17;13.55;;;10.40;79.80;;;;;;5004969;28;84211;-67
2020/12/19 04:24:43;;;;;;;36.08;14.55;;;10.40;79.80;;;;;;4986266;28;83396;-67
2020/12/19 04:27:08;;;;;;;34.72;16.98;;;10.40;79.70;;;;;;4986612;28;83034;-67
2020/12/19 04:29:34;;;;;;;32.42;15.25;;;10.40;79.70;;;;;;5004088;28;83371;-67
2020/12/19 04:32:00;;;;;;;43.25;16.70;;;10.40;79.80;;;;;;5004698;28;83063;-66
2020/12/19 04:34:26;;;;;;;39.15;16.73;;;10.40;79.90;;;;;;5004376;28;83776;-66
2020/12/19 04:36:52;;;;;;;34.78;17.02;;;10.40;79.90;;;;;;5004073;28;83986;-66
2020/12/19 04:39:18;;;;;;;38.50;15.18;;;10.40;80.00;;;;;;5005206;28;83391;-66
2020/12/19 04:41:44;;;;;;;42.15;18.17;;;10.40;79.90;;;;;;5004182;28;84459;-66
2020/12/19 04:44:11;;;;;;;39.22;16.45;;;10.40;80.00;;;;;;5004291;28;83223;-66
2020/12/19 04:46:41;;;;;;;44.47;19.58;;;10.30;80.00;;;;;;5004024;28;82961;-66
2020/12/19 04:49:07;;;;;;;35.00;16.33;;;10.30;80.00;;;;;;5003821;28;84381;-65
2020/12/19 04:51:35;;;;;;;35.20;16.80;;;10.40;80.00;;;;;;5004072;28;83410;-66
2020/12/19 04:54:01;;;;;;;36.10;17.52;;;10.40;80.00;;;;;;5004223;28;83238;-67
2020/12/19 04:56:29;;;;;;;37.55;18.17;;;10.40;79.80;;;;;;5003590;28;84376;-66
2020/12/19 04:58:57;;;;;;;42.22;17.30;;;10.40;79.80;;;;;;5003992;28;83231;-66
2020/12/19 05:01:23;;;;;;;37.83;17.85;;;10.40;79.70;;;;;;5003961;28;82920;-66
2020/12/19 05:03:50;;;;;;;35.45;17.55;;;10.40;79.70;;;;;;4985261;28;83337;-66
2020/12/19 05:06:24;;;;;;;45.20;19.40;;;10.40;79.70;;;;;;4985761;28;84154;-66
2020/12/19 05:08:50;;;;;;;38.35;17.80;;;10.50;79.70;;;;;;5003413;28;84475;-66
2020/12/19 05:11:16;;;;;;;44.05;18.33;;;10.40;79.70;;;;;;5004471;28;83052;-66
2020/12/19 05:13:44;;;;;;;39.88;19.60;;;10.40;79.80;;;;;;5003971;28;82441;-66
2020/12/19 05:16:11;;;;;;;43.17;20.38;;;10.40;79.70;;;;;;5003328;28;83002;-65
2020/12/19 05:18:38;;;;;;;46.28;18.90;;;10.40;79.60;;;;;;5003556;28;83311;-66
2020/12/19 05:21:05;;;;;;;44.20;20.92;;;10.50;79.60;;;;;;5003222;28;83257;-66
2020/12/19 05:23:40;;;;;;;43.55;18.13;;;10.50;79.50;;;;;;5003327;28;85027;-66
2020/12/19 05:26:08;;;;;;;46.70;20.92;;;10.50;79.60;;;;;;4985235;28;84173;-66
2020/12/19 05:28:35;;;;;;;41.92;18.58;;;10.40;79.60;;;;;;4985680;28;84674;-66
2020/12/19 05:31:01;;;;;;;43.03;17.58;;;10.40;79.60;;;;;;4985520;28;83056;-67
2020/12/19 05:33:35;;;;;;;43.80;19.35;;;10.50;79.50;;;;;;5003499;28;82411;-66
2020/12/19 05:36:05;;;;;;;42.60;17.77;;;10.40;79.40;;;;;;5004281;28;82305;-66
2020/12/19 05:38:36;;;;;;;39.95;17.90;;;10.40;79.50;;;;;;5002930;28;84092;-65
2020/12/19 05:41:02;;;;;;;41.65;18.73;;;10.40;79.50;;;;;;5003517;28;82869;-66
2020/12/19 05:43:28;;;;;;;43.88;18.88;;;10.40;79.40;;;;;;4985090;28;85952;-65
2020/12/19 05:45:54;;;;;;;41.75;18.25;;;10.40;79.50;;;;;;5003470;28;82768;-65
2020/12/19 05:48:20;;;;;;;44.40;19.25;;;10.40;79.40;;;;;;5003212;28;83230;-67
2020/12/19 05:50:46;;;;;;;46.30;18.15;;;10.40;79.40;;;;;;5003159;28;82516;-67
2020/12/19 05:53:13;;;;;;;41.20;17.83;;;10.40;79.40;;;;;;5003518;28;82514;-66
2020/12/19 05:55:39;;;;;;;35.58;16.67;;;10.40;79.40;;;;;;5001967;28;83431;-66
2020/12/19 05:58:05;;;;;;;40.28;16.92;;;10.40;79.30;;;;;;5003410;28;83197;-66
2020/12/19 06:00:32;;;;;;;34.67;16.40;;;10.40;79.30;;;;;;5003378;28;83011;-66
2020/12/19 06:03:02;;;;;;;35.17;15.68;;;10.40;79.40;;;;;;5003009;28;83168;-66
2020/12/19 06:05:30;;;;;;;33.65;14.30;;;10.40;79.40;;;;;;5002842;28;83375;-66
2020/12/19 06:07:56;;;;;;;33.90;14.98;;;10.40;79.40;;;;;;5002820;28;82728;-66
2020/12/19 06:10:22;;;;;;;35.22;15.32;;;10.40;79.40;;;;;;4985603;28;85755;-67
2020/12/19 06:12:59;;;;;;;34.80;16.40;;;10.30;79.40;;;;;;5002892;28;83213;-66
2020/12/19 06:15:52;;;;;;;33.80;15.70;;;10.30;79.60;;;;;;5002962;28;82985;-66
2020/12/19 06:18:46;;;;;;;34.10;16.17;;;10.30;80.00;;;;;;5002669;28;84522;-66
2020/12/19 06:21:12;;;;;;;33.80;16.83;;;10.30;80.40;;;;;;4984675;28;85913;-65
2020/12/19 06:23:39;;;;;;;33.60;17.38;;;10.20;80.70;;;;;;5002715;28;83198;-66
2020/12/19 06:26:06;;;;;;;35.17;16.88;;;10.20;80.90;;;;;;5003320;28;82641;-66
2020/12/19 06:28:43;;;;;;;37.78;17.08;;;10.20;81.20;;;;;;5002996;28;83270;-67
2020/12/19 06:31:14;;;;;;;38.50;18.65;;;10.20;81.60;;;;;;5002366;28;83880;-67
2020/12/19 06:33:41;;;;;;;39.78;18.58;;;10.20;81.70;;;;;;5002836;28;83315;-67
2020/12/19 06:36:19;;;;;;;43.40;19.15;;;10.20;81.90;;;;;;5003560;28;83916;-67
2020/12/19 06:39:08;;;;;;;42.17;19.08;;;10.20;82.00;;;;;;4988128;28;86043;-67
2020/12/19 06:41:55;;;;;;;39.53;19.02;;;10.20;82.20;;;;;;5004635;28;82862;-68
2020/12/19 06:44:32;;;;;;;40.55;19.65;;;10.20;82.50;;;;;;5006461;28;83219;-67
2020/12/19 06:47:01;;;;;;;38.20;18.73;;;10.20;82.60;;;;;;5005987;28;82488;-67
2020/12/19 06:49:35;;;;;;;38.80;16.42;;;10.20;82.60;;;;;;4988169;28;86209;-65
2020/12/19 06:52:13;;;;;;;33.50;16.13;;;10.20;82.60;;;;;;5006328;28;83493;-67
2020/12/19 06:54:40;;;;;;;32.00;16.23;;;10.20;82.50;;;;;;5006236;28;83389;-65
2020/12/19 06:57:27;;;;;;;33.25;15.32;;;10.20;82.40;;;;;;5005699;28;82760;-66
2020/12/19 06:59:57;;;;;;;31.98;16.33;;;10.20;82.50;;;;;;5005263;28;83004;-67
2020/12/19 07:02:24;;;;;;;27.23;13.50;;;10.20;82.40;;;;;;4987989;28;85612;-66
2020/12/19 07:04:50;;;;;;;28.50;14.73;;;10.10;82.40;;;;;;5005990;28;83241;-66
2020/12/19 07:07:26;;;;;;;31.15;14.63;;;10.10;82.30;;;;;;5005337;28;83263;-66
2020/12/19 07:09:56;;;;;;;25.17;12.98;;;10.20;82.30;;;;;;5005174;28;84420;-66
2020/12/19 07:12:29;;;;;;;26.40;12.45;;;10.10;82.20;;;;;;4987463;28;84229;-66
2020/12/19 07:14:55;;;;;;;23.75;11.90;;;10.10;82.20;;;;;;5006033;28;83073;-65
2020/12/19 07:17:21;;;;;;;23.00;11.77;;;10.10;82.10;;;;;;5005330;28;83346;-66
2020/12/19 07:20:01;;;;;;;23.55;11.85;;;10.10;82.10;;;;;;5005743;28;84671;-65
2020/12/19 07:22:27;;;;;;;26.08;12.77;;;10.00;82.10;;;;;;5005439;28;83043;-66
2020/12/19 07:24:54;;;;;;;25.40;13.23;;;10.00;82.10;;;;;;5005522;28;83197;-67
2020/12/19 07:27:21;;;;;;;24.25;12.55;;;10.00;81.90;;;;;;5004362;28;82677;-66
2020/12/19 07:29:47;;;;;;;28.48;13.90;;;10.00;81.90;;;;;;4987212;28;83372;-66
2020/12/19 07:32:13;;;;;;;27.23;13.57;;;10.00;81.90;;;;;;5005036;28;84128;-67
2020/12/19 07:34:39;;;;;;;30.40;13.95;;;10.00;82.00;;;;;;5005572;28;84418;-67
2020/12/19 07:37:06;;;;;;;26.90;14.07;;;10.00;82.00;;;;;;5005683;28;82835;-66
2020/12/19 07:39:32;;;;;;;33.20;15.20;;;10.00;82.00;;;;;;5005273;28;83094;-66
2020/12/19 07:42:07;;;;;;;27.83;13.68;;;10.00;82.00;;;;;;4986877;28;83612;-66
2020/12/19 07:44:34;;;;;;;32.05;14.55;;;10.00;82.00;;;;;;5005019;28;83235;-66
2020/12/19 07:47:09;;;;;;;32.90;14.63;;;10.00;81.90;;;;;;5004276;28;83461;-65
2020/12/19 07:49:36;;;;;;;31.35;15.35;;;9.90;82.00;;;;;;5004621;28;83258;-67
2020/12/19 07:52:06;;;;;;;27.77;15.45;;;9.90;82.00;;;;;;5003609;28;82836;-65
2020/12/19 07:54:32;;;;;;;27.67;14.82;;;9.90;82.10;;;;;;5004650;28;84333;-65
2020/12/19 07:56:59;;;;;;;30.52;14.52;;;10.00;82.10;;;;;;5004613;28;82525;-66
2020/12/19 07:59:26;;;;;;;30.02;14.90;;;10.00;82.00;;;;;;5005302;28;82596;-65
2020/12/19 08:01:53;;;;;;;28.90;15.10;;;10.10;81.80;;;;;;5004658;28;82891;-64
2020/12/19 08:04:19;;;;;;;27.90;14.00;;;10.10;81.80;;;;;;5004813;28;82412;-64
2020/12/19 08:06:48;;;;;;;29.42;13.40;;;10.10;81.80;;;;;;5002956;28;82880;-64
2020/12/19 08:09:21;;;;;;;30.00;13.80;;;10.10;81.80;;;;;;4986203;28;86006;-64
2020/12/19 08:11:48;;;;;;;29.23;15.15;;;10.10;81.80;;;;;;5004896;28;82528;-63
2020/12/19 08:14:15;;;;;;;29.65;14.02;;;10.10;81.60;;;;;;5004693;28;83262;-64
2020/12/19 08:16:42;;;;;;;33.60;17.73;;;10.10;81.60;;;;;;5004826;28;83188;-63
2020/12/19 08:19:10;;;;;;;27.30;14.32;;;10.00;81.50;;;;;;5004385;28;83204;-64
2020/12/19 08:21:37;;;;;;;26.13;14.18;;;10.00;81.60;;;;;;5002900;28;82883;-64
2020/12/19 08:24:03;;;;;;;25.73;13.13;;;10.00;81.70;;;;;;5004167;28;84439;-64
2020/12/19 08:26:28;;;;;;;20.92;11.65;;;10.00;81.70;;;;;;5004399;28;83055;-64
2020/12/19 08:29:08;;;;;;;23.20;10.98;;;10.10;81.80;;;;;;5004063;28;82515;-64
2020/12/19 08:31:37;;;;;;;25.70;14.07;;;10.20;81.80;;;;;;5004907;28;82834;-65
2020/12/19 08:34:11;;;;;;;25.88;14.70;;;10.20;81.70;;;;;;4986243;28;86334;-63
2020/12/19 08:36:45;;;;;;;24.48;14.55;;;10.20;81.50;;;;;;5004704;28;82960;-65
2020/12/19 08:39:18;;;;;;;21.80;12.57;;;10.20;81.20;;;;;;4986682;28;85766;-63
2020/12/19 08:41:44;;;;;;;20.55;11.93;;;10.20;81.00;;;;;;4986736;28;86931;-64
2020/12/19 08:44:31;;;;;;;21.90;12.57;;;10.20;80.70;;;;;;5005238;28;82499;-63
2020/12/19 08:47:04;;;;;;;21.27;12.05;;;10.30;80.50;;;;;;4983232;28;83736;-64
2020/12/19 08:49:31;;;;;;;18.90;10.75;;;10.30;80.40;;;;;;5004401;28;84760;-64
2020/12/19 08:51:57;;;;;;;15.50;9.57;;;10.30;80.30;;;;;;5004721;28;82645;-63
2020/12/19 08:54:23;;;;;;;18.25;10.38;;;10.30;80.20;;;;;;5007139;28;80703;-64
2020/12/19 08:56:52;;;;;;;18.38;9.55;;;10.30;80.10;;;;;;5003809;28;82705;-63
2020/12/19 08:59:28;;;;;;;17.13;9.57;;;10.30;80.20;;;;;;4988319;28;82674;-63
2020/12/19 09:01:55;;;;;;;19.10;10.13;;;10.40;80.10;;;;;;5007037;28;79915;-64
2020/12/19 09:04:21;;;;;;;14.70;9.63;;;10.30;80.00;;;;;;4986114;28;86221;-65
2020/12/19 09:06:53;;;;;;;18.48;11.05;;;10.40;79.90;;;;;;5007112;28;81767;-65
2020/12/19 09:09:29;;;;;;;17.10;9.65;;;10.40;79.80;;;;;;4985974;28;86117;-64
2020/12/19 09:12:10;;;;;;;17.42;9.85;;;10.40;79.80;;;;;;5004615;28;82997;-64
2020/12/19 09:14:36;;;;;;;21.95;11.05;;;10.40;79.70;;;;;;5007290;28;79695;-64
2020/12/19 09:17:02;;;;;;;16.05;9.55;;;10.40;79.60;;;;;;4985736;28;82799;-63
2020/12/19 09:19:29;;;;;;;15.73;9.70;;;10.30;79.70;;;;;;5006628;28;80524;-64
2020/12/19 09:21:56;;;;;;;18.83;10.40;;;10.40;79.50;;;;;;5006509;28;80975;-64
2020/12/19 09:24:23;;;;;;;16.60;9.40;;;10.40;79.40;;;;;;5002128;28;83271;-64
2020/12/19 09:26:49;;;;;;;16.95;9.82;;;10.40;79.40;;;;;;4988289;28;84219;-64
2020/12/19 09:29:15;;;;;;;16.85;9.18;;;10.40;79.40;;;;;;5004576;28;81345;-63
2020/12/19 09:31:41;;;;;;;17.23;9.40;;;10.40;79.00;;;;;;4988404;28;83008;-64
2020/12/19 09:34:07;;;;;;;14.85;9.00;;;10.30;79.30;;;;;;5006050;28;80534;-64
2020/12/19 09:36:32;;;;;;;16.08;8.40;;;10.40;79.30;;;;;;4988278;28;81931;-64
2020/12/19 09:38:58;;;;;;;15.05;9.40;;;10.40;78.90;;;;;;5006829;28;79831;-63
2020/12/19 09:41:24;;;;;;;17.55;9.57;;;10.40;78.80;;;;;;4988795;28;81367;-63
2020/12/19 09:43:52;;;;;;;15.77;9.15;;;10.50;78.80;;;;;;5004428;28;80896;-64
2020/12/19 09:46:18;;;;;;;15.00;8.80;;;10.50;78.80;;;;;;5005862;28;81419;-64
2020/12/19 09:48:44;;;;;;;16.77;9.07;;;10.50;78.80;;;;;;4987798;28;83206;-64
2020/12/19 09:51:10;;;;;;;16.15;9.10;;;10.60;78.70;;;;;;5003985;28;80307;-63
2020/12/19 09:53:37;;;;;;;15.35;8.35;;;10.60;78.50;;;;;;5006411;28;80674;-64
2020/12/19 09:56:04;;;;;;;15.95;9.00;;;10.70;78.40;;;;;;5005285;28;82013;-64
2020/12/19 09:58:30;;;;;;;16.13;8.93;;;10.70;78.00;;;;;;5006181;28;80715;-63
2020/12/19 10:00:56;;;;;;;17.33;9.23;;;10.70;77.80;;;;;;5006228;28;81320;-65
2020/12/19 10:03:22;;;;;;;14.32;7.45;;;10.70;77.80;;;;;;5006072;28;80607;-64
2020/12/19 10:05:47;;;;;;;14.13;7.60;;;10.70;77.90;;;;;;5006492;28;79910;-64
2020/12/19 10:08:14;;;;;;;14.15;8.40;;;10.70;77.80;;;;;;5005605;28;81831;-64
2020/12/19 10:10:45;;;;;;;16.73;8.98;;;10.80;77.70;;;;;;4988488;28;83567;-64
2020/12/19 10:13:12;;;;;;;14.00;8.15;;;10.80;77.80;;;;;;5009461;28;80627;-63
2020/12/19 10:15:38;;;;;;;14.57;8.35;;;10.80;77.90;;;;;;5009385;28;80055;-64
2020/12/19 10:18:04;;;;;;;14.85;8.35;;;10.80;77.70;;;;;;5009221;28;81191;-64
2020/12/19 10:20:30;;;;;;;15.10;8.32;;;10.80;77.70;;;;;;5007646;28;81200;-63
2020/12/19 10:22:55;;;;;;;15.07;8.40;;;10.80;77.80;;;;;;4991204;28;82883;-63
2020/12/19 10:25:21;;;;;;;15.65;8.85;;;10.90;77.60;;;;;;4991443;28;80393;-64
2020/12/19 10:27:47;;;;;;;14.13;8.48;;;10.90;77.70;;;;;;5009592;28;80671;-64
2020/12/19 10:30:12;;;;;;;14.60;8.05;;;10.90;77.60;;;;;;5009270;28;80154;-64
2020/12/19 10:32:38;;;;;;;14.25;8.32;;;11.00;77.50;;;;;;5009199;28;80532;-64
2020/12/19 10:35:06;;;;;;;13.32;8.40;;;11.10;77.10;;;;;;5009535;28;80026;-64
2020/12/19 10:37:35;;;;;;;19.35;10.52;;;11.10;76.90;;;;;;5006920;28;82491;-64
2020/12/19 10:40:01;;;;;;;14.90;9.32;;;11.10;76.80;;;;;;5004973;28;82620;-64
2020/12/19 10:42:27;;;;;;;16.55;10.30;;;11.10;76.90;;;;;;5008932;28;80537;-63
2020/12/19 10:44:52;;;;;;;15.10;9.18;;;11.10;76.80;;;;;;5006733;28;82510;-64
2020/12/19 10:47:18;;;;;;;14.40;9.13;;;11.00;76.90;;;;;;5008763;28;81981;-64
2020/12/19 10:49:44;;;;;;;14.77;8.88;;;11.00;77.20;;;;;;5008907;28;80077;-64
2020/12/19 10:52:10;;;;;;;17.25;9.25;;;10.90;77.30;;;;;;5008963;28;80688;-64
2020/12/19 10:54:35;;;;;;;14.30;8.90;;;10.90;77.40;;;;;;4990674;28;82115;-64
2020/12/19 10:57:02;;;;;;;13.88;8.27;;;10.90;77.60;;;;;;5008662;28;80692;-64
2020/12/19 10:59:29;;;;;;;13.68;8.05;;;10.90;77.70;;;;;;4990483;28;82561;-64
2020/12/19 11:01:55;;;;;;;12.13;7.40;;;10.90;77.50;;;;;;5009130;28;80617;-64
2020/12/19 11:04:21;;;;;;;11.32;7.43;;;10.70;77.60;;;;;;5008955;28;80141;-64
2020/12/19 11:06:49;;;;;;;13.77;8.48;;;10.60;78.00;;;;;;5008506;28;80747;-65
2020/12/19 11:09:16;;;;;;;13.90;8.93;;;10.50;78.40;;;;;;5008806;28;80428;-64
2020/12/19 11:11:48;;;;;;;12.73;7.95;;;10.40;78.50;;;;;;5008883;28;80480;-65
2020/12/19 11:14:14;;;;;;;16.58;9.23;;;10.50;78.80;;;;;;5008746;28;80190;-64
2020/12/19 11:16:40;;;;;;;15.27;9.95;;;10.60;78.60;;;;;;5006163;28;80679;-63
2020/12/19 11:19:09;;;;;;;15.82;9.30;;;10.80;78.30;;;;;;5008239;28;81796;-64
2020/12/19 11:21:40;;;;;;;17.85;11.15;;;10.90;77.80;;;;;;5008578;28;80729;-64
2020/12/19 11:24:06;;;;;;;16.70;9.55;;;11.00;77.80;;;;;;5005912;28;82810;-64
2020/12/19 11:26:32;;;;;;;15.50;10.02;;;11.10;77.60;;;;;;5008148;28;81852;-64
2020/12/19 11:28:58;;;;;;;18.48;10.07;;;11.20;77.20;;;;;;5005763;28;82728;-64
2020/12/19 11:31:27;;;;;;;14.02;8.93;;;11.40;76.90;;;;;;5005455;28;84492;-65
2020/12/19 11:33:54;;;;;;;14.25;8.95;;;11.50;76.80;;;;;;5008181;28;82867;-64
2020/12/19 11:36:20;;;;;;;14.65;8.52;;;11.40;76.60;;;;;;5008141;28;80740;-64
2020/12/19 11:38:46;;;;;;;14.23;8.52;;;11.40;76.70;;;;;;5008947;28;80321;-64
2020/12/19 11:41:12;;;;;;;13.80;8.98;;;11.40;76.70;;;;;;5007856;28;80840;-64
2020/12/19 11:43:38;;;;;;;13.38;8.52;;;11.40;76.80;;;;;;5008596;28;79931;-64
2020/12/19 11:46:07;;;;;;;15.20;9.00;;;11.40;76.90;;;;;;5007848;28;82022;-64
2020/12/19 11:48:33;;;;;;;14.25;9.02;;;11.40;77.10;;;;;;4989848;28;80476;-64
2020/12/19 11:50:58;;;;;;;17.67;10.20;;;11.30;77.10;;;;;;4989777;28;80928;-66
2020/12/19 11:53:24;;;;;;;16.17;9.93;;;11.20;77.40;;;;;;5005807;28;82379;-65
2020/12/19 11:55:50;;;;;;;15.32;10.23;;;11.10;77.70;;;;;;5007541;28;81891;-64
2020/12/19 11:58:16;;;;;;;18.65;10.50;;;11.10;78.10;;;;;;5004332;28;82543;-65
2020/12/19 12:00:41;;;;;;;16.40;9.98;;;11.00;78.50;;;;;;4986733;28;84426;-64
2020/12/19 12:03:07;;;;;;;14.30;10.50;;;11.00;78.90;;;;;;5005037;28;83279;-63
2020/12/19 12:05:34;;;;;;;16.95;10.88;;;11.10;78.90;;;;;;4986939;28;85084;-64
2020/12/19 12:08:00;;;;;;;17.58;9.77;;;11.10;78.90;;;;;;5005066;28;82900;-64
2020/12/19 12:10:25;;;;;;;16.50;10.50;;;11.20;78.80;;;;;;5007769;28;80622;-64
2020/12/19 12:12:51;;;;;;;17.80;9.65;;;11.30;78.70;;;;;;5005101;28;82333;-64
2020/12/19 12:15:17;;;;;;;16.33;9.68;;;11.40;78.80;;;;;;5006538;28;80612;-65
2020/12/19 12:17:43;;;;;;;18.75;10.48;;;11.30;78.80;;;;;;5007123;28;79969;-64
2020/12/19 12:20:08;;;;;;;15.30;9.10;;;11.40;78.70;;;;;;5004924;28;82649;-65
2020/12/19 12:22:34;;;;;;;14.13;8.57;;;11.40;78.50;;;;;;5007401;28;83836;-64
2020/12/19 12:25:00;;;;;;;13.68;9.27;;;11.50;78.30;;;;;;5007147;28;81886;-64
2020/12/19 12:27:26;;;;;;;16.00;9.65;;;11.40;78.40;;;;;;4989370;28;82940;-64
2020/12/19 12:29:51;;;;;;;14.52;9.05;;;11.50;78.40;;;;;;5007345;28;80619;-64
2020/12/19 12:32:17;;;;;;;15.82;9.20;;;11.40;78.30;;;;;;5006653;28;80583;-64